Time;durP1;ratioP1;P1;durP2;ratioP2;P2;SDS_P1;SDS_P2;PMS_P1;PMS_P2;Temp;Humidity;BMP_temperature;BMP_pressure;BME280_temperature;BME280_humidity;BME280_pressure;Samples;Min_cycle;Max_cycle;Signal;HPM_P1;HPM_P2
2022/02/15 03:45:25;;;;;;;3.30;2.57;;;5.90;94.60;;;;;;5036482;28;20229;-82
2022/02/15 03:47:52;;;;;;;2.63;2.37;;;5.90;95.20;;;;;;5042793;28;20206;-82
2022/02/15 03:52:47;;;;;;;3.87;2.77;;;6.00;95.00;;;;;;5034840;28;20219;-80
2022/02/15 03:55:14;;;;;;;3.20;2.60;;;5.80;95.20;;;;;;5042774;28;20222;-82
2022/02/15 03:57:41;;;;;;;3.53;2.50;;;5.80;95.20;;;;;;5044612;28;20298;-82
2022/02/15 04:00:10;;;;;;;5.43;2.70;;;5.80;95.20;;;;;;5043941;28;20317;-82
2022/02/15 04:02:49;;;;;;;4.43;2.90;;;5.90;95.60;;;;;;5042626;28;20229;-82
2022/02/15 04:05:16;;;;;;;4.20;2.40;;;5.80;95.70;;;;;;5022895;28;20251;-82
2022/02/15 04:07:43;;;;;;;3.80;2.53;;;5.80;95.30;;;;;;5023384;28;20191;-82
2022/02/15 04:10:10;;;;;;;3.23;2.80;;;5.80;95.60;;;;;;5027354;28;20218;-83
2022/02/15 04:12:37;;;;;;;5.03;2.63;;;5.70;95.90;;;;;;5029517;28;20202;-79
2022/02/15 04:15:04;;;;;;;3.97;2.70;;;5.60;96.10;;;;;;5036614;28;20282;-82
2022/02/15 04:17:31;;;;;;;3.00;2.50;;;5.60;96.10;;;;;;5035950;28;20211;-80
2022/02/15 04:19:59;;;;;;;3.80;2.93;;;5.60;96.30;;;;;;5035284;28;20205;-82
2022/02/15 04:22:26;;;;;;;2.87;2.50;;;5.50;96.40;;;;;;5036029;28;20222;-79
2022/02/15 04:24:53;;;;;;;3.33;2.70;;;5.50;96.70;;;;;;5036300;28;20206;-79
2022/02/15 04:27:20;;;;;;;3.60;3.00;;;5.50;96.90;;;;;;5037082;28;20559;-79
2022/02/15 04:29:47;;;;;;;2.87;2.30;;;5.60;97.10;;;;;;5039086;28;20298;-80
2022/02/15 04:32:14;;;;;;;2.87;2.30;;;5.60;96.80;;;;;;5032211;28;20198;-81
2022/02/15 04:34:41;;;;;;;3.93;2.57;;;5.50;97.00;;;;;;5044021;28;20222;-80
2022/02/15 04:37:09;;;;;;;5.00;2.60;;;5.50;96.90;;;;;;5041119;28;20313;-80
2022/02/15 04:39:36;;;;;;;2.73;2.40;;;5.40;96.90;;;;;;5035346;28;20203;-80
2022/02/15 04:42:04;;;;;;;2.83;2.50;;;5.30;97.20;;;;;;5034927;28;20231;-82
2022/02/15 04:44:31;;;;;;;4.13;2.37;;;5.40;97.20;;;;;;5042901;28;20234;-82
2022/02/15 04:46:58;;;;;;;2.47;2.20;;;5.40;97.40;;;;;;5041074;28;20241;-82
2022/02/15 04:49:24;;;;;;;5.30;2.40;;;5.40;97.10;;;;;;5041735;28;20216;-82
2022/02/15 04:51:51;;;;;;;3.13;2.57;;;5.40;97.10;;;;;;5041195;28;20317;-82
2022/02/15 04:54:20;;;;;;;3.03;2.37;;;5.40;97.10;;;;;;5041455;28;20662;-82
2022/02/15 04:56:47;;;;;;;3.50;2.50;;;5.40;97.40;;;;;;5040997;28;20234;-80
2022/02/15 04:59:14;;;;;;;2.70;2.40;;;5.40;97.10;;;;;;5043536;28;20209;-83
2022/02/15 05:01:40;;;;;;;3.27;2.30;;;5.40;97.20;;;;;;5041602;28;20227;-80
2022/02/15 05:04:48;;;;;;;3.70;2.40;;;5.40;97.10;;;;;;5041906;28;20289;-80
2022/02/15 05:06:54;;;;;;;3.60;2.57;;;5.40;97.10;;;;;;5044178;28;20591;-80
2022/02/15 05:09:22;;;;;;;3.23;2.50;;;5.40;97.30;;;;;;5049794;28;20294;-81
2022/02/15 05:11:49;;;;;;;2.60;2.40;;;5.40;97.10;;;;;;5037251;28;20222;-84
2022/02/15 05:14:16;;;;;;;3.77;2.57;;;5.30;97.40;;;;;;5053745;28;20206;-81
2022/02/15 05:16:43;;;;;;;2.67;2.47;;;5.20;97.70;;;;;;5028819;28;20693;-81
2022/02/15 05:19:10;;;;;;;3.20;2.40;;;5.20;97.70;;;;;;5040629;28;20301;-80
2022/02/15 05:21:37;;;;;;;3.97;2.60;;;5.20;98.00;;;;;;5041738;28;20230;-80
2022/02/15 05:24:04;;;;;;;3.07;2.23;;;5.30;98.00;;;;;;5037079;28;20259;-80
2022/02/15 05:26:32;;;;;;;4.70;2.53;;;5.30;97.70;;;;;;5047392;28;20700;-81
2022/02/15 05:28:59;;;;;;;6.70;2.67;;;5.40;97.80;;;;;;5059632;28;20201;-81
2022/02/15 05:31:26;;;;;;;2.37;2.00;;;5.40;97.80;;;;;;5047080;28;20293;-80
2022/02/15 05:34:30;;;;;;;9.23;2.37;;;5.40;97.80;;;;;;5045445;28;20266;-80
2022/02/15 05:36:57;;;;;;;3.23;2.00;;;5.40;98.20;;;;;;5021780;28;20290;-80
2022/02/15 05:39:24;;;;;;;3.07;2.23;;;5.50;98.60;;;;;;5040305;28;20270;-80
2022/02/15 05:41:52;;;;;;;2.63;2.17;;;5.60;98.30;;;;;;5041199;28;20240;-81
2022/02/15 05:44:19;;;;;;;3.53;2.33;;;5.70;97.60;;;;;;5043340;28;20710;-81
2022/02/15 05:46:46;;;;;;;5.13;2.30;;;5.60;97.30;;;;;;5043025;28;20227;-80
2022/02/15 05:49:13;;;;;;;5.50;2.17;;;5.50;97.20;;;;;;5154131;22;20240;-83
2022/02/15 05:51:40;;;;;;;3.43;2.20;;;5.40;97.60;;;;;;5062598;28;20230;-80
2022/02/15 05:54:06;;;;;;;3.77;2.43;;;5.40;97.90;;;;;;5061677;28;20201;-81
2022/02/15 05:56:33;;;;;;;4.20;2.37;;;5.30;98.00;;;;;;5061734;28;20654;-84
2022/02/15 05:59:01;;;;;;;4.17;2.30;;;5.40;98.10;;;;;;5061122;28;20206;-81
2022/02/15 06:01:28;;;;;;;4.40;2.50;;;5.40;97.60;;;;;;5063245;28;20308;-80
2022/02/15 06:04:13;;;;;;;6.27;2.37;;;5.40;97.80;;;;;;5065391;28;20285;-83
2022/02/15 06:06:42;;;;;;;4.27;2.50;;;5.30;97.70;;;;;;5057550;28;20249;-82
2022/02/15 06:09:10;;;;;;;3.80;2.40;;;5.40;98.10;;;;;;5056759;28;20649;-79
2022/02/15 06:11:38;;;;;;;2.50;2.17;;;5.30;97.90;;;;;;5065217;28;20842;-81
2022/02/15 06:14:06;;;;;;;3.60;2.30;;;5.40;98.20;;;;;;5065579;28;20280;-81
2022/02/15 06:16:33;;;;;;;3.43;2.37;;;5.40;97.80;;;;;;5067596;28;20257;-82
2022/02/15 06:19:00;;;;;;;3.10;2.10;;;5.40;97.80;;;;;;5059325;28;20201;-81
2022/02/15 06:21:27;;;;;;;3.13;2.47;;;5.50;97.80;;;;;;5056428;28;20304;-83
2022/02/15 06:23:54;;;;;;;3.57;2.57;;;5.50;97.30;;;;;;5060939;28;20261;-82
2022/02/15 06:26:30;;;;;;;4.87;2.53;;;5.40;97.90;;;;;;5057241;28;20312;-84
2022/02/15 06:28:58;;;;;;;4.30;2.40;;;5.60;97.60;;;;;;5055793;28;20247;-81
2022/02/15 06:31:36;;;;;;;2.63;1.90;;;5.50;97.40;;;;;;5056808;28;20260;-81
2022/02/15 06:34:04;;;;;;;7.03;2.13;;;5.60;97.40;;;;;;5062623;28;20653;-81
2022/02/15 06:36:48;;;;;;;3.77;2.20;;;5.50;97.40;;;;;;5060604;28;20299;-81
2022/02/15 06:39:15;;;;;;;4.93;2.47;;;5.50;97.80;;;;;;5057340;28;20290;-81
2022/02/15 06:41:47;;;;;;;4.90;2.30;;;5.50;97.50;;;;;;5057968;28;20232;-86
2022/02/15 06:44:14;;;;;;;5.27;2.57;;;5.50;97.60;;;;;;5046410;28;20195;-83
2022/02/15 06:46:42;;;;;;;3.63;2.50;;;5.40;97.40;;;;;;5050877;28;20221;-81
2022/02/15 06:49:09;;;;;;;4.83;2.57;;;5.50;97.70;;;;;;5056128;28;20229;-83
2022/02/15 06:51:37;;;;;;;2.60;2.40;;;5.50;97.60;;;;;;5060145;28;20233;-82
2022/02/15 06:54:04;;;;;;;3.07;2.40;;;5.70;97.50;;;;;;5059664;28;20261;-82
2022/02/15 06:56:31;;;;;;;2.83;2.50;;;5.60;97.00;;;;;;5059999;28;20233;-81
2022/02/15 06:58:58;;;;;;;3.93;2.43;;;5.70;97.10;;;;;;5062521;28;20240;-82
2022/02/15 07:01:24;;;;;;;3.90;2.40;;;5.70;96.90;;;;;;5056259;28;20245;-86
2022/02/15 07:03:53;;;;;;;3.23;2.57;;;5.70;96.70;;;;;;5047570;28;20229;-83
2022/02/15 07:06:21;;;;;;;4.93;2.70;;;5.70;96.80;;;;;;5059408;28;20257;-82
2022/02/15 07:08:47;;;;;;;4.30;2.53;;;5.70;96.70;;;;;;5059128;28;20198;-82
2022/02/15 07:11:14;;;;;;;5.60;2.80;;;5.70;96.80;;;;;;5065574;28;20242;-83
2022/02/15 07:13:41;;;;;;;4.83;3.07;;;5.70;97.10;;;;;;5065692;28;20202;-83
2022/02/15 07:16:08;;;;;;;4.87;3.00;;;5.60;96.70;;;;;;5060392;28;20237;-82
2022/02/15 07:18:35;;;;;;;3.60;2.80;;;5.60;97.00;;;;;;5061127;28;20263;-84
2022/02/15 07:21:03;;;;;;;3.40;2.87;;;5.70;97.00;;;;;;5060100;28;20228;-84
2022/02/15 07:23:30;;;;;;;6.60;3.03;;;5.70;97.10;;;;;;5061352;28;20302;-84
2022/02/15 07:25:57;;;;;;;5.73;2.90;;;5.60;96.90;;;;;;5045260;28;20305;-84
2022/02/15 07:28:24;;;;;;;3.40;2.97;;;5.50;97.60;;;;;;5060886;28;20198;-83
2022/02/15 07:30:53;;;;;;;3.70;2.97;;;5.60;97.60;;;;;;5060171;28;20225;-84
2022/02/15 07:33:20;;;;;;;6.43;2.63;;;5.60;97.40;;;;;;5061508;28;20217;-84
2022/02/15 07:35:47;;;;;;;5.83;3.20;;;5.50;97.50;;;;;;5060454;28;20261;-83
2022/02/15 07:38:15;;;;;;;3.93;3.00;;;5.40;97.40;;;;;;5062309;28;20290;-84
2022/02/15 07:40:50;;;;;;;5.27;2.60;;;5.50;98.10;;;;;;5063153;28;20228;-84
2022/02/15 07:43:17;;;;;;;3.77;2.80;;;5.60;97.80;;;;;;5065164;28;20225;-83
2022/02/15 07:45:44;;;;;;;5.47;3.20;;;5.70;97.20;;;;;;5049908;28;20286;-85
2022/02/15 07:48:11;;;;;;;4.00;3.00;;;5.60;97.10;;;;;;5062997;28;20236;-84
2022/02/15 07:50:40;;;;;;;6.47;3.60;;;5.70;97.20;;;;;;5063612;28;20230;-84
2022/02/15 07:53:08;;;;;;;5.20;3.27;;;5.80;97.10;;;;;;5085166;28;20300;-85
2022/02/15 07:55:36;;;;;;;5.43;3.30;;;5.80;96.90;;;;;;5072688;28;20315;-83
2022/02/15 07:58:03;;;;;;;5.40;3.63;;;6.00;97.20;;;;;;5064478;28;20282;-84
2022/02/15 08:00:36;;;;;;;6.67;4.43;;;6.10;96.20;;;;;;5063369;28;20763;-86
2022/02/15 08:03:03;;;;;;;6.53;3.80;;;6.00;96.40;;;;;;5063970;28;20854;-84
2022/02/15 08:05:30;;;;;;;6.37;4.37;;;6.00;96.20;;;;;;5060287;28;20316;-84
2022/02/15 08:07:58;;;;;;;6.13;4.10;;;5.90;96.10;;;;;;5074803;28;20209;-84
2022/02/15 08:10:26;;;;;;;6.57;4.33;;;5.90;96.20;;;;;;5054789;28;20262;-83
2022/02/15 08:12:57;;;;;;;6.43;4.63;;;5.90;96.30;;;;;;5063347;28;20276;-84
2022/02/15 08:15:26;;;;;;;6.30;4.43;;;6.00;96.60;;;;;;5063829;28;20221;-84
2022/02/15 08:17:53;;;;;;;6.77;4.10;;;6.10;96.20;;;;;;5064951;28;20202;-85
2022/02/15 08:20:20;;;;;;;6.50;4.33;;;6.30;95.90;;;;;;5058876;28;20233;-84
2022/02/15 08:22:47;;;;;;;4.60;3.87;;;6.30;95.50;;;;;;5064365;28;20218;-85
2022/02/15 08:25:14;;;;;;;7.10;4.30;;;6.20;95.40;;;;;;5065004;28;20229;-84
2022/02/15 08:27:41;;;;;;;6.53;4.00;;;6.30;95.70;;;;;;5066187;28;20213;-84
2022/02/15 08:30:10;;;;;;;4.53;3.67;;;6.20;95.30;;;;;;5066990;28;20277;-84
2022/02/15 08:32:37;;;;;;;5.23;3.67;;;6.30;95.60;;;;;;5070574;28;20210;-84
2022/02/15 08:35:05;;;;;;;5.17;3.90;;;6.40;95.20;;;;;;5079764;28;20201;-84
2022/02/15 08:37:33;;;;;;;4.47;3.40;;;6.30;95.40;;;;;;5068890;28;20205;-84
2022/02/15 08:40:00;;;;;;;6.03;3.60;;;6.40;95.50;;;;;;5075088;28;20634;-84
2022/02/15 08:42:27;;;;;;;5.13;3.27;;;6.40;95.40;;;;;;5064353;28;20293;-85
2022/02/15 08:44:54;;;;;;;4.43;3.17;;;6.30;95.40;;;;;;5072087;28;20256;-84
2022/02/15 08:47:23;;;;;;;5.13;3.00;;;6.40;95.40;;;;;;5070939;28;20292;-85
2022/02/15 08:49:52;;;;;;;5.03;3.10;;;6.50;95.70;;;;;;5064274;28;20285;-84
2022/02/15 08:52:19;;;;;;;3.70;2.93;;;6.50;95.40;;;;;;5064597;28;20260;-84
2022/02/15 08:54:46;;;;;;;3.83;2.87;;;6.40;95.40;;;;;;5064737;28;20236;-84
2022/02/15 08:57:13;;;;;;;3.50;2.93;;;6.40;95.40;;;;;;5064717;28;20233;-84
2022/02/15 08:59:40;;;;;;;4.30;2.90;;;6.40;95.40;;;;;;5060477;28;20280;-85
2022/02/15 09:02:08;;;;;;;3.97;2.57;;;6.40;95.40;;;;;;5062431;28;20225;-84
2022/02/15 09:04:37;;;;;;;3.83;2.60;;;6.50;95.40;;;;;;5065392;28;20232;-88
2022/02/15 09:07:04;;;;;;;3.07;2.47;;;6.70;94.90;;;;;;5057564;28;20305;-84
2022/02/15 09:09:31;;;;;;;3.70;2.70;;;6.70;95.20;;;;;;5058925;28;20214;-86
2022/02/15 09:11:58;;;;;;;3.23;2.43;;;6.70;94.40;;;;;;5063584;28;20214;-84
2022/02/15 09:14:25;;;;;;;3.27;2.43;;;6.70;94.10;;;;;;5067868;28;20308;-85
2022/02/15 09:16:52;;;;;;;3.40;2.30;;;6.70;95.00;;;;;;5060006;28;20218;-84
2022/02/15 09:19:18;;;;;;;3.80;2.70;;;6.80;94.00;;;;;;5055193;28;20206;-84
2022/02/15 09:21:50;;;;;;;3.00;2.27;;;6.80;94.00;;;;;;5064051;28;20245;-84
2022/02/15 09:24:16;;;;;;;5.57;2.60;;;6.90;94.10;;;;;;5058442;28;20244;-86
2022/02/15 09:26:43;;;;;;;2.93;2.23;;;6.90;93.70;;;;;;5062708;28;20241;-85
2022/02/15 09:29:24;;;;;;;2.20;1.97;;;7.00;93.90;;;;;;5053136;28;20388;-84
2022/02/15 09:31:52;;;;;;;3.07;2.07;;;7.20;92.80;;;;;;5063193;28;20667;-84
2022/02/15 09:34:23;;;;;;;5.83;2.00;;;7.30;92.90;;;;;;5065823;28;20209;-85
2022/02/15 09:36:51;;;;;;;2.97;1.93;;;7.20;92.40;;;;;;5064054;28;20225;-84
2022/02/15 09:39:18;;;;;;;2.67;1.83;;;7.30;92.90;;;;;;5069134;28;20201;-84
2022/02/15 09:41:46;;;;;;;6.13;1.90;;;7.40;92.90;;;;;;5067809;28;20245;-84
2022/02/15 09:44:13;;;;;;;2.83;1.92;;;7.60;92.30;;;;;;5071969;28;20217;-85
2022/02/15 09:46:44;;;;;;;3.73;1.70;;;7.70;91.90;;;;;;5072980;28;20241;-85
2022/02/15 09:51:55;;;;;;;4.57;2.15;;;7.90;91.00;;;;;;5047857;28;20244;-86
2022/02/15 09:54:22;;;;;;;2.45;1.70;;;7.90;91.20;;;;;;5055927;28;20209;-83
2022/02/15 10:00:14;;;;;;;2.55;1.70;;;7.80;91.40;;;;;;5074756;28;20177;-83
2022/02/15 10:03:23;;;;;;;2.35;1.83;;;8.00;91.60;;;;;;5065010;28;20209;-84
2022/02/15 10:05:52;;;;;;;1.70;1.60;;;7.90;90.80;;;;;;5064988;28;20221;-84
2022/02/15 10:08:27;;;;;;;1.95;1.48;;;7.70;91.30;;;;;;5065514;28;20672;-84
2022/02/15 10:10:54;;;;;;;2.88;1.58;;;7.70;91.40;;;;;;5053992;28;20230;-83
2022/02/15 10:13:24;;;;;;;2.05;1.60;;;7.70;91.50;;;;;;5064082;28;20269;-83
2022/02/15 10:29:21;;;;;;;1.40;1.30;;;7.80;91.00;;;;;;6199368;22;1492885;-84
2022/02/15 10:31:48;;;;;;;2.50;1.27;;;7.60;91.90;;;;;;6187271;22;20198;-84
2022/02/15 10:34:34;;;;;;;2.42;1.52;;;7.60;92.20;;;;;;6171514;23;20229;-84
2022/02/15 10:37:02;;;;;;;3.95;1.52;;;7.60;92.00;;;;;;6221565;23;20269;-84
2022/02/15 10:39:37;;;;;;;2.38;1.50;;;7.60;92.30;;;;;;6202026;23;20174;-84
2022/02/15 10:42:05;;;;;;;2.03;1.20;;;7.60;92.30;;;;;;6174396;23;20198;-84
2022/02/15 10:44:52;;;;;;;3.10;1.40;;;7.60;92.30;;;;;;6171682;23;20257;-84
2022/02/15 10:47:20;;;;;;;1.10;1.00;;;7.60;91.80;;;;;;6201453;23;20186;-85
2022/02/15 10:49:47;;;;;;;2.22;1.20;;;7.50;91.30;;;;;;6202088;23;20196;-84
2022/02/15 10:52:14;;;;;;;1.92;1.30;;;7.40;91.70;;;;;;6201266;23;20206;-85
2022/02/15 10:54:41;;;;;;;1.73;1.20;;;7.30;91.80;;;;;;6201324;23;20262;-85
2022/02/15 10:57:12;;;;;;;2.38;1.30;;;7.40;92.50;;;;;;6199263;23;20206;-85
2022/02/15 11:03:11;;;;;;;2.72;1.67;;;7.70;91.70;;;;;;6202394;23;20184;-84
2022/02/15 11:05:41;;;;;;;1.50;1.40;;;7.80;91.50;;;;;;6201867;23;20208;-85
2022/02/15 11:08:08;;;;;;;2.35;1.60;;;7.60;90.90;;;;;;6201548;23;20166;-84
2022/02/15 11:10:45;;;;;;;1.85;1.52;;;7.50;91.40;;;;;;6200443;23;20209;-85
2022/02/15 11:13:12;;;;;;;1.70;1.33;;;7.50;92.10;;;;;;6201879;23;20162;-85
2022/02/15 11:15:41;;;;;;;1.65;1.30;;;7.70;92.00;;;;;;6201139;23;20198;-86
2022/02/15 11:18:12;;;;;;;3.00;1.40;;;7.70;91.50;;;;;;6200945;23;20205;-85
2022/02/15 11:20:54;;;;;;;2.15;1.58;;;7.60;92.40;;;;;;6200315;23;20202;-85
2022/02/15 11:23:22;;;;;;;2.35;1.42;;;7.70;92.20;;;;;;6201085;23;20190;-84
2022/02/15 11:25:51;;;;;;;2.45;1.42;;;7.70;91.50;;;;;;6200603;23;20288;-85
2022/02/15 11:28:21;;;;;;;2.22;1.58;;;7.70;91.50;;;;;;6217663;23;20261;-85
2022/02/15 11:30:53;;;;;;;1.77;1.50;;;7.70;91.60;;;;;;6223587;23;20260;-85
2022/02/15 11:33:23;;;;;;;1.77;1.50;;;7.70;92.20;;;;;;6224517;23;20162;-84
2022/02/15 11:35:52;;;;;;;2.37;1.50;;;7.60;91.40;;;;;;6223740;23;20216;-84
2022/02/15 11:38:19;;;;;;;2.63;1.60;;;7.50;91.90;;;;;;6224111;23;20282;-85
2022/02/15 11:40:56;;;;;;;2.33;1.60;;;7.60;91.80;;;;;;6223339;23;20201;-85
2022/02/15 11:43:23;;;;;;;2.50;1.80;;;7.60;91.90;;;;;;6224597;23;20677;-85
2022/02/15 11:45:50;;;;;;;2.90;1.67;;;7.70;91.80;;;;;;6225071;23;20257;-84
2022/02/15 11:56:08;;;;;;;2.40;1.90;;;7.50;92.40;;;;;;6193019;23;20209;-85
2022/02/15 12:05:17;;;;;;;2.53;2.00;;;8.00;92.10;;;;;;6193713;23;20162;-85
2022/02/15 12:11:09;;;;;;;1.85;1.70;;;8.40;90.30;;;;;;6193421;23;20254;-84
2022/02/15 12:17:00;;;;;;;2.47;2.00;;;8.20;90.30;;;;;;6194193;23;20205;-84
2022/02/15 12:19:42;;;;;;;4.13;2.10;;;8.40;90.40;;;;;;6194756;23;20163;-85
2022/02/15 12:22:54;;;;;;;2.30;2.10;;;8.30;90.30;;;;;;6195798;22;20206;-85
2022/02/15 12:25:22;;;;;;;2.25;2.05;;;8.40;90.30;;;;;;6194304;23;20677;-84
2022/02/15 12:27:50;;;;;;;3.03;2.33;;;8.50;89.80;;;;;;6194736;23;20206;-85
2022/02/15 12:34:04;;;;;;;3.72;2.50;;;8.80;85.80;;;;;;6195166;23;20142;-84
2022/02/15 12:36:32;;;;;;;2.47;2.28;;;8.80;85.90;;;;;;6196764;23;20163;-84
2022/02/15 12:39:00;;;;;;;3.00;2.50;;;8.70;86.20;;;;;;6195652;23;20211;-85
2022/02/15 12:41:27;;;;;;;2.67;2.25;;;8.70;87.40;;;;;;6194629;23;20254;-85
2022/02/15 12:44:00;;;;;;;3.85;2.50;;;8.80;86.30;;;;;;6194318;23;20174;-84
2022/02/15 12:50:10;;;;;;;5.95;2.85;;;8.70;85.90;;;;;;6170810;23;20226;-84
2022/02/15 12:52:37;;;;;;;5.28;2.95;;;8.50;86.30;;;;;;6164369;23;20191;-84
2022/02/15 12:55:12;;;;;;;4.43;3.05;;;8.50;87.60;;;;;;6164964;23;20187;-85
2022/02/15 12:57:40;;;;;;;3.50;2.78;;;8.40;88.10;;;;;;6165993;23;20187;-84
2022/02/15 13:00:11;;;;;;;3.35;3.05;;;8.30;90.20;;;;;;6165429;23;20164;-85
2022/02/15 13:06:54;;;;;;;2.92;2.58;;;8.30;90.30;;;;;;6163479;23;20199;-84
2022/02/15 13:09:52;;;;;;;3.00;2.70;;;8.10;90.30;;;;;;6164690;23;20203;-84
2022/02/15 13:12:33;;;;;;;3.13;2.60;;;8.00;90.30;;;;;;6165796;23;20251;-85
2022/02/15 13:15:02;;;;;;;4.30;3.00;;;7.90;90.60;;;;;;6166375;23;20237;-85
2022/02/15 13:18:04;;;;;;;5.47;3.35;;;8.00;90.70;;;;;;6164644;23;20289;-85
2022/02/15 13:20:38;;;;;;;4.70;3.08;;;7.90;90.60;;;;;;6158680;23;20240;-84
2022/02/15 13:23:07;;;;;;;3.70;3.13;;;7.90;90.20;;;;;;6165121;23;20162;-84
2022/02/15 13:25:43;;;;;;;3.33;3.00;;;7.90;90.70;;;;;;6164362;23;20195;-84
2022/02/15 13:31:42;;;;;;;4.22;3.65;;;7.70;90.90;;;;;;6163173;23;20202;-85
2022/02/15 13:34:10;;;;;;;4.93;3.13;;;7.60;91.10;;;;;;6163535;23;20193;-85
2022/02/15 13:37:01;;;;;;;5.95;3.17;;;7.60;91.70;;;;;;6163384;23;20199;-85
2022/02/15 13:39:28;;;;;;;5.18;3.40;;;7.70;91.60;;;;;;6165171;23;20686;-85
2022/02/15 13:41:55;;;;;;;3.25;2.95;;;7.60;91.70;;;;;;6163792;23;20278;-84
2022/02/15 13:44:23;;;;;;;4.18;3.40;;;7.60;91.30;;;;;;6164882;23;20267;-85
2022/02/15 13:46:50;;;;;;;3.97;3.30;;;7.70;90.30;;;;;;6163542;23;20260;-85
2022/02/15 13:49:18;;;;;;;3.80;3.40;;;7.60;90.20;;;;;;6164377;23;20585;-85
2022/02/15 13:51:45;;;;;;;4.28;3.78;;;7.60;90.70;;;;;;6163922;23;20605;-85
2022/02/15 13:54:13;;;;;;;3.85;3.17;;;7.70;90.20;;;;;;6165246;23;20254;-85
2022/02/15 13:56:40;;;;;;;3.83;3.38;;;7.70;90.30;;;;;;6162657;23;20209;-85
2022/02/15 13:59:09;;;;;;;4.47;3.75;;;7.70;91.10;;;;;;6163489;23;20227;-85
2022/02/15 14:01:38;;;;;;;4.60;3.35;;;7.70;90.80;;;;;;6162853;23;20203;-85
2022/02/15 14:04:06;;;;;;;3.50;3.20;;;7.70;91.20;;;;;;6163840;23;20631;-84
2022/02/15 14:06:35;;;;;;;5.05;3.30;;;7.90;90.20;;;;;;6162478;23;20207;-85
2022/02/15 14:09:03;;;;;;;3.67;3.28;;;8.00;90.30;;;;;;6163301;23;20246;-84
2022/02/15 14:11:30;;;;;;;4.13;3.67;;;8.10;90.30;;;;;;6162637;23;20278;-85
2022/02/15 14:13:57;;;;;;;3.50;3.20;;;8.00;89.30;;;;;;6164058;23;20186;-85
2022/02/15 14:16:25;;;;;;;3.33;3.03;;;7.80;89.50;;;;;;6162819;23;20207;-87
2022/02/15 14:18:53;;;;;;;4.75;3.08;;;7.80;90.20;;;;;;6163768;23;20624;-85
2022/02/15 14:21:20;;;;;;;4.50;2.70;;;7.70;90.20;;;;;;6163206;23;20213;-85
2022/02/15 14:23:48;;;;;;;6.10;3.40;;;7.50;90.60;;;;;;6137350;23;20179;-85
2022/02/15 14:26:15;;;;;;;3.65;3.35;;;7.30;92.00;;;;;;6164079;23;20557;-85
2022/02/15 14:28:42;;;;;;;5.13;3.22;;;7.30;92.40;;;;;;6164385;23;20257;-88
2022/02/15 14:31:09;;;;;;;6.32;3.40;;;7.10;93.10;;;;;;6162562;23;20259;-85
2022/02/15 14:33:36;;;;;;;5.35;3.35;;;7.00;94.00;;;;;;6164065;23;20254;-85
2022/02/15 14:37:01;;;;;;;3.50;3.20;;;7.00;95.00;;;;;;6163054;23;20254;-85
2022/02/15 14:39:29;;;;;;;5.13;3.30;;;7.20;94.40;;;;;;6164135;23;20187;-85
2022/02/15 14:41:56;;;;;;;3.53;2.73;;;7.30;93.40;;;;;;6162708;23;20203;-85
2022/02/15 14:44:23;;;;;;;4.35;2.65;;;7.30;93.90;;;;;;6163851;23;20178;-85
2022/02/15 14:47:39;;;;;;;3.50;2.63;;;7.60;92.20;;;;;;6162286;23;20199;-87
2022/02/15 14:50:07;;;;;;;3.67;2.83;;;7.60;91.50;;;;;;6163058;23;20226;-87
2022/02/15 14:52:37;;;;;;;4.70;2.57;;;7.60;90.90;;;;;;6164586;23;20179;-85
2022/02/15 14:55:06;;;;;;;3.20;2.90;;;7.60;90.50;;;;;;6162470;23;20164;-84
2022/02/15 14:57:33;;;;;;;3.13;2.80;;;7.60;90.20;;;;;;6164394;23;20167;-85
2022/02/15 15:00:10;;;;;;;2.60;2.40;;;7.60;90.20;;;;;;6163591;23;20171;-86
2022/02/15 15:02:38;;;;;;;2.50;2.30;;;7.60;87.50;;;;;;6165775;23;20164;-85
2022/02/15 15:05:06;;;;;;;2.92;2.10;;;7.60;87.90;;;;;;6165853;23;20179;-86
2022/02/15 15:07:35;;;;;;;3.97;2.00;;;7.40;90.10;;;;;;6166179;23;20199;-85
2022/02/15 15:10:02;;;;;;;1.70;1.60;;;7.10;90.10;;;;;;6166795;23;20239;-85
2022/02/15 15:12:31;;;;;;;2.10;1.53;;;7.00;90.50;;;;;;6167186;23;20239;-85
2022/02/15 15:14:58;;;;;;;2.10;1.63;;;6.70;91.10;;;;;;6164944;23;20175;-85
2022/02/15 15:17:25;;;;;;;2.57;1.60;;;6.20;92.00;;;;;;6167809;23;20258;-81
2022/02/15 15:19:55;;;;;;;2.47;1.60;;;5.90;93.80;;;;;;6164641;23;20213;-82
2022/02/15 15:22:22;;;;;;;2.37;1.60;;;5.80;95.20;;;;;;6168625;23;20195;-86
2022/02/15 15:24:49;;;;;;;1.60;1.50;;;5.70;95.20;;;;;;6139577;23;20207;-82
2022/02/15 15:27:16;;;;;;;1.90;1.60;;;5.60;95.20;;;;;;6163926;23;20203;-82
2022/02/15 15:29:45;;;;;;;4.47;1.77;;;5.40;95.40;;;;;;6171140;23;20270;-83
2022/02/15 15:32:13;;;;;;;2.20;1.77;;;5.50;96.20;;;;;;6168631;23;20217;-82
2022/02/15 15:34:40;;;;;;;1.80;1.57;;;5.40;96.10;;;;;;6167672;23;20258;-82
2022/02/15 15:37:08;;;;;;;2.27;1.77;;;5.30;96.60;;;;;;6167452;23;20207;-83
2022/02/15 15:39:35;;;;;;;1.83;1.50;;;5.20;97.10;;;;;;6171831;23;20258;-82
2022/02/15 15:42:06;;;;;;;1.87;1.70;;;5.20;97.60;;;;;;6163980;23;20281;-82
2022/02/15 15:44:35;;;;;;;2.80;1.60;;;5.20;97.50;;;;;;6162414;23;20171;-82
2022/02/15 15:47:05;;;;;;;2.90;1.80;;;5.50;97.00;;;;;;6162692;23;20209;-81
2022/02/15 15:49:33;;;;;;;2.30;1.80;;;5.50;96.40;;;;;;6162793;23;20218;-81
2022/02/15 15:52:00;;;;;;;2.87;1.90;;;5.40;97.70;;;;;;6162421;23;20207;-82
2022/02/15 15:54:26;;;;;;;2.57;1.60;;;5.40;97.20;;;;;;6163484;23;20631;-82
2022/02/15 15:56:53;;;;;;;2.43;1.70;;;5.40;97.60;;;;;;6166838;23;20211;-82
2022/02/15 15:59:21;;;;;;;2.60;1.50;;;5.50;98.10;;;;;;6165737;23;20255;-82
2022/02/15 16:01:48;;;;;;;2.17;1.70;;;5.70;97.20;;;;;;6166310;23;20238;-83
2022/02/15 16:04:17;;;;;;;1.70;1.60;;;5.70;96.80;;;;;;6164555;23;20623;-86
2022/02/15 16:06:45;;;;;;;3.33;1.67;;;5.80;97.00;;;;;;6163459;23;20260;-84
2022/02/15 16:09:14;;;;;;;1.50;1.40;;;5.80;96.50;;;;;;6165872;23;20175;-84
2022/02/15 16:11:41;;;;;;;3.17;1.60;;;5.80;96.40;;;;;;6149254;23;20199;-84
2022/02/15 16:14:08;;;;;;;1.53;1.40;;;5.90;96.10;;;;;;6162180;23;20182;-85
2022/02/15 16:16:38;;;;;;;1.70;1.60;;;6.10;95.50;;;;;;6162003;23;20203;-86
2022/02/15 16:19:06;;;;;;;1.70;1.50;;;6.00;95.30;;;;;;6162419;23;20558;-84
2022/02/15 16:21:34;;;;;;;2.80;2.37;;;6.00;95.70;;;;;;6161837;23;20659;-84
2022/02/15 16:24:02;;;;;;;2.27;2.07;;;5.90;95.30;;;;;;6162787;23;20171;-84
2022/02/15 16:26:29;;;;;;;2.50;1.77;;;5.80;95.80;;;;;;6162167;23;20221;-84
2022/02/15 16:28:56;;;;;;;2.10;1.70;;;5.70;95.90;;;;;;6162605;23;20262;-86
2022/02/15 16:31:43;;;;;;;1.90;1.70;;;5.80;96.00;;;;;;6161780;23;20274;-84
2022/02/15 16:34:10;;;;;;;1.87;1.70;;;5.80;96.10;;;;;;6162717;23;20549;-85
2022/02/15 16:36:39;;;;;;;1.70;1.60;;;5.70;96.10;;;;;;6161873;23;20206;-82
2022/02/15 16:39:05;;;;;;;2.10;1.90;;;5.50;96.30;;;;;;6163524;23;20226;-83
2022/02/15 16:41:36;;;;;;;2.37;1.87;;;5.50;96.50;;;;;;6162299;23;20249;-84
2022/02/15 16:44:03;;;;;;;2.17;1.87;;;5.50;96.50;;;;;;6162525;23;20171;-84
2022/02/15 16:46:30;;;;;;;4.20;1.87;;;5.50;96.80;;;;;;6162090;23;20199;-85
2022/02/15 16:48:58;;;;;;;2.23;1.70;;;5.40;96.70;;;;;;6162297;23;20206;-82
2022/02/15 16:51:35;;;;;;;1.70;1.60;;;5.40;96.60;;;;;;6150702;23;20217;-82
2022/02/15 16:54:04;;;;;;;2.53;1.83;;;5.40;96.70;;;;;;6166990;23;20223;-81
2022/02/15 16:56:31;;;;;;;2.53;2.00;;;5.40;96.80;;;;;;6167061;23;20203;-84
2022/02/15 16:59:06;;;;;;;2.27;1.70;;;5.40;97.20;;;;;;6167877;23;20198;-83
2022/02/15 17:01:33;;;;;;;3.80;2.17;;;5.50;97.00;;;;;;6165906;23;20269;-83
2022/02/15 17:04:00;;;;;;;4.27;1.90;;;5.50;97.20;;;;;;6165145;23;20172;-83
2022/02/15 17:06:27;;;;;;;2.70;1.90;;;5.50;97.00;;;;;;6165588;23;20214;-83
2022/02/15 17:09:11;;;;;;;4.20;2.10;;;5.50;97.10;;;;;;6166632;23;20254;-84
2022/02/15 17:11:38;;;;;;;3.07;2.30;;;5.50;97.00;;;;;;6166945;23;20211;-84
2022/02/15 17:14:05;;;;;;;3.37;2.20;;;5.50;96.80;;;;;;6165621;23;20175;-86
2022/02/15 17:16:36;;;;;;;4.60;2.67;;;5.50;97.20;;;;;;6165131;23;20583;-84
2022/02/15 17:19:03;;;;;;;2.67;2.23;;;5.50;97.80;;;;;;6168141;23;20218;-83
2022/02/15 17:21:30;;;;;;;3.17;2.57;;;5.50;97.20;;;;;;6167856;23;20207;-86
2022/02/15 17:24:04;;;;;;;6.13;2.93;;;5.50;97.30;;;;;;6167196;23;20207;-84
2022/02/15 17:26:32;;;;;;;4.07;2.67;;;5.50;97.40;;;;;;6165403;23;20200;-87
2022/02/15 17:29:07;;;;;;;3.43;3.10;;;5.50;97.30;;;;;;6167458;23;20203;-83
2022/02/15 17:31:37;;;;;;;6.47;3.10;;;5.50;97.20;;;;;;6164373;23;20289;-84
2022/02/15 17:34:05;;;;;;;3.77;2.90;;;5.40;97.40;;;;;;6165237;23;20195;-85
2022/02/15 17:36:34;;;;;;;4.33;2.77;;;5.40;96.90;;;;;;6164805;23;20207;-83
2022/02/15 17:39:01;;;;;;;2.93;2.63;;;5.40;97.10;;;;;;6165804;23;20211;-83
2022/02/15 17:41:27;;;;;;;3.93;2.77;;;5.40;97.00;;;;;;6165145;23;20277;-84
2022/02/15 17:44:04;;;;;;;4.30;2.80;;;5.40;97.00;;;;;;6163348;23;20266;-88
2022/02/15 17:46:33;;;;;;;3.20;2.80;;;5.40;96.70;;;;;;6160841;23;20932;-85
2022/02/15 17:49:22;;;;;;;3.80;2.60;;;5.40;96.80;;;;;;6160700;23;20199;-86
2022/02/15 17:51:56;;;;;;;5.87;3.10;;;5.40;96.70;;;;;;6159068;23;20705;-84
2022/02/15 17:54:23;;;;;;;3.17;2.80;;;5.30;96.70;;;;;;6159491;23;20251;-85
2022/02/15 17:56:50;;;;;;;4.30;3.00;;;5.20;96.60;;;;;;6159739;23;20681;-85